createdAt,value
2018-08-18T00:01:15.110Z,17.50
2018-08-18T00:03:42.811Z,18.27
2018-08-18T00:06:10.428Z,16.17
2018-08-18T00:08:38.114Z,16.90
2018-08-18T00:11:05.625Z,17.03
2018-08-18T00:13:49.146Z,17.50
2018-08-18T00:16:21.228Z,17.80
2018-08-18T00:18:48.812Z,18.10
2018-08-18T00:21:16.567Z,17.00
2018-08-18T00:23:54.434Z,17.40
2018-08-18T00:26:22.612Z,16.80
2018-08-18T00:28:50.552Z,17.70
2018-08-18T00:31:18.160Z,17.10
2018-08-18T00:33:45.881Z,17.03
2018-08-18T00:36:13.478Z,16.83
2018-08-18T00:38:41.096Z,16.93
2018-08-18T00:41:08.658Z,19.73
2018-08-18T00:43:36.163Z,17.70
2018-08-18T00:46:04.027Z,17.33
2018-08-18T00:48:31.657Z,17.77
2018-08-18T00:50:59.380Z,17.67
2018-08-18T00:53:27.007Z,17.43
2018-08-18T00:55:54.550Z,16.93
2018-08-18T00:58:26.695Z,16.93
2018-08-18T01:01:00.411Z,19.03
2018-08-18T01:03:28.221Z,16.97
2018-08-18T01:06:00.679Z,18.73
2018-08-18T01:08:28.514Z,17.57
2018-08-18T01:10:56.197Z,18.73
2018-08-18T01:13:23.664Z,18.30
2018-08-18T01:15:51.194Z,18.63
2018-08-18T01:18:19.291Z,18.30
2018-08-18T01:20:46.956Z,20.20
2018-08-18T01:23:14.506Z,18.97
2018-08-18T01:25:42.133Z,17.60
2018-08-18T01:28:09.645Z,19.60
2018-08-18T01:30:37.201Z,19.43
2018-08-18T01:33:04.817Z,18.70
2018-08-18T01:35:32.355Z,17.80
2018-08-18T01:38:00.108Z,20.70
2018-08-18T01:40:27.593Z,19.13
2018-08-18T01:42:55.082Z,18.27
2018-08-18T01:45:23.103Z,20.37
2018-08-18T01:47:50.713Z,20.13
2018-08-18T01:50:18.719Z,19.93
2018-08-18T01:52:46.286Z,19.37
2018-08-18T01:55:14.389Z,19.93
2018-08-18T01:57:41.973Z,19.13
2018-08-18T02:00:24.710Z,19.40
2018-08-18T02:02:52.345Z,18.30
2018-08-18T02:05:19.960Z,18.67
2018-08-18T02:07:47.485Z,18.83
2018-08-18T02:10:15.028Z,16.93
2018-08-18T02:12:54.117Z,18.30
2018-08-18T02:15:21.567Z,18.73
2018-08-18T02:17:49.102Z,18.90
2018-08-18T02:20:16.679Z,20.23
2018-08-18T02:22:44.384Z,19.83
2018-08-18T02:25:11.899Z,19.07
2018-08-18T02:27:39.424Z,19.40
2018-08-18T02:30:22.776Z,19.30
2018-08-18T02:32:50.428Z,19.43
2018-08-18T02:35:18.044Z,20.87
2018-08-18T02:37:45.613Z,19.70
2018-08-18T02:40:15.028Z,18.87
2018-08-18T02:42:42.604Z,18.90
2018-08-18T02:45:10.481Z,20.33
2018-08-18T02:47:38.028Z,21.20
2018-08-18T02:50:07.104Z,19.40
2018-08-18T02:52:35.244Z,21.37
2018-08-18T02:55:04.168Z,19.80
2018-08-18T02:57:35.106Z,22.27
2018-08-18T03:00:03.976Z,20.37
2018-08-18T03:02:31.591Z,22.43
2018-08-18T03:04:59.233Z,21.97
2018-08-18T03:07:31.316Z,21.63
2018-08-18T03:09:58.909Z,22.32
2018-08-18T03:12:32.215Z,21.47
2018-08-18T03:14:59.740Z,21.97
2018-08-18T03:17:27.609Z,23.42
2018-08-18T03:19:55.205Z,24.23
2018-08-18T03:22:27.410Z,22.02
2018-08-18T03:24:55.011Z,22.70
2018-08-18T03:27:22.523Z,21.20
2018-08-18T03:29:51.916Z,21.50
2018-08-18T03:32:20.844Z,23.30
2018-08-18T03:34:48.363Z,22.75
2018-08-18T03:37:26.938Z,21.47
2018-08-18T03:39:54.848Z,21.57
2018-08-18T03:42:29.572Z,22.17
2018-08-18T03:44:57.094Z,23.47
2018-08-18T03:47:24.696Z,20.67
2018-08-18T03:49:52.284Z,20.70
2018-08-18T03:52:19.851Z,21.20
2018-08-18T03:54:47.363Z,21.20
2018-08-18T03:57:14.929Z,20.87
2018-08-18T03:59:42.481Z,21.13
2018-08-18T04:02:10.058Z,21.40
2018-08-18T04:04:37.675Z,20.27
2018-08-18T04:07:06.444Z,21.37
2018-08-18T04:09:35.478Z,20.70
2018-08-18T04:12:04.241Z,21.02
2018-08-18T04:14:40.825Z,21.45
2018-08-18T04:17:39.377Z,20.52
2018-08-18T04:20:07.006Z,21.23
2018-08-18T04:22:34.904Z,22.22
2018-08-18T04:25:02.523Z,21.85
2018-08-18T04:27:45.236Z,22.35
2018-08-18T04:30:15.204Z,21.77
2018-08-18T04:32:52.446Z,22.95
2018-08-18T04:35:21.469Z,22.75
2018-08-18T04:37:49.857Z,22.87
2018-08-18T04:40:17.464Z,24.90
2018-08-18T04:42:45.293Z,26.90
2018-08-18T04:45:14.605Z,26.23
2018-08-18T04:47:42.173Z,24.10
2018-08-18T04:50:09.752Z,24.40
2018-08-18T04:52:37.899Z,26.55
2018-08-18T04:55:05.499Z,26.45
2018-08-18T04:57:33.130Z,25.08
2018-08-18T05:00:00.719Z,25.60
2018-08-18T05:02:28.286Z,24.40
2018-08-18T05:04:55.841Z,26.30
2018-08-18T05:07:23.416Z,24.27
2018-08-18T05:09:51.028Z,23.47
2018-08-18T05:12:18.677Z,23.95
2018-08-18T05:14:46.291Z,24.65
2018-08-18T05:17:13.828Z,24.00
2018-08-18T05:19:41.551Z,23.20
2018-08-18T05:22:09.112Z,22.25
2018-08-18T05:24:36.773Z,25.67
2018-08-18T05:27:15.857Z,22.30
2018-08-18T05:29:43.429Z,21.50
2018-08-18T05:32:10.988Z,21.80
2018-08-18T05:34:39.120Z,21.60
2018-08-18T05:37:06.803Z,23.03
2018-08-18T05:39:34.320Z,21.13
2018-08-18T05:42:01.976Z,22.17
2018-08-18T05:44:29.719Z,21.57
2018-08-18T05:46:57.243Z,21.40
2018-08-18T05:49:24.773Z,21.90
2018-08-18T05:51:53.404Z,21.40
2018-08-18T05:54:26.471Z,22.10
2018-08-18T05:56:54.143Z,20.10
2018-08-18T05:59:21.991Z,20.83
2018-08-18T06:01:49.716Z,20.03
2018-08-18T06:04:18.556Z,20.97
2018-08-18T06:06:46.838Z,20.40
2018-08-18T06:09:15.724Z,21.67
2018-08-18T06:11:43.884Z,21.23
2018-08-18T06:14:12.338Z,22.10
2018-08-18T06:16:40.462Z,23.40
2018-08-18T06:19:08.111Z,20.60
2018-08-18T06:21:35.766Z,19.30
2018-08-18T06:24:03.492Z,21.40
2018-08-18T06:26:31.147Z,19.30
2018-08-18T06:28:58.788Z,16.00
2018-08-18T06:31:26.612Z,18.90
2018-08-18T06:33:54.164Z,17.90
2018-08-18T06:36:21.845Z,18.20
2018-08-18T06:38:49.480Z,17.03
2018-08-18T06:41:17.258Z,16.90
2018-08-18T06:43:45.184Z,18.03
2018-08-18T06:46:12.830Z,16.77
2018-08-18T06:48:40.509Z,16.33
2018-08-18T06:51:08.156Z,18.23
2018-08-18T06:53:41.476Z,17.17
2018-08-18T06:56:09.167Z,17.17
2018-08-18T06:58:36.870Z,17.70
2018-08-18T07:01:05.107Z,17.47
2018-08-18T07:03:36.600Z,17.90
2018-08-18T07:06:05.379Z,18.60
2018-08-18T07:08:38.096Z,18.33
2018-08-18T07:11:06.036Z,21.07
2018-08-18T07:13:33.712Z,18.27
2018-08-18T07:16:01.385Z,19.20
2018-08-18T07:18:29.048Z,18.33
2018-08-18T07:20:56.635Z,17.33
2018-08-18T07:23:24.344Z,17.90
2018-08-18T07:25:57.123Z,16.33
2018-08-18T07:28:24.894Z,15.73
2018-08-18T07:30:52.711Z,17.40
2018-08-18T07:33:20.516Z,14.53
2018-08-18T07:35:48.487Z,13.90
2018-08-18T07:38:16.047Z,13.00
2018-08-18T07:40:44.373Z,11.43
2018-08-18T07:43:15.246Z,11.47
2018-08-18T07:45:43.379Z,11.50
2018-08-18T07:48:11.877Z,10.53
2018-08-18T07:50:39.423Z,10.53
2018-08-18T07:53:07.652Z,10.53
2018-08-18T07:55:35.264Z,10.23
2018-08-18T07:58:04.561Z,10.20
2018-08-18T08:00:34.797Z,10.73
2018-08-18T08:03:02.678Z,9.93
2018-08-18T08:05:30.993Z,10.63
2018-08-18T08:07:58.700Z,9.83
2018-08-18T08:10:26.475Z,9.87
2018-08-18T08:12:55.273Z,10.87
2018-08-18T08:15:22.932Z,10.80
2018-08-18T08:17:50.580Z,10.70
2018-08-18T08:20:18.559Z,10.07
2018-08-18T08:22:47.255Z,9.47
2018-08-18T08:25:15.333Z,10.60
2018-08-18T08:27:45.468Z,10.97
2018-08-18T08:30:13.192Z,11.33
2018-08-18T08:32:40.840Z,10.97
2018-08-18T08:35:09.607Z,10.20
2018-08-18T08:37:37.201Z,10.67
2018-08-18T08:40:08.023Z,13.03
2018-08-18T08:42:36.117Z,9.77
2018-08-18T08:45:04.523Z,10.80
2018-08-18T08:47:32.337Z,11.70
2018-08-18T08:50:00.013Z,10.40
2018-08-18T08:52:32.336Z,10.30
2018-08-18T08:55:00.089Z,10.37
2018-08-18T08:57:27.964Z,10.60
2018-08-18T08:59:55.700Z,10.03
2018-08-18T09:02:23.944Z,10.10
2018-08-18T09:04:51.576Z,9.53
2018-08-18T09:07:19.426Z,9.60
2018-08-18T09:09:47.089Z,9.87
2018-08-18T09:12:15.520Z,10.27
2018-08-18T09:14:43.178Z,9.30
2018-08-18T09:17:10.859Z,10.27
2018-08-18T09:19:38.725Z,8.97
2018-08-18T09:22:06.469Z,9.20
2018-08-18T09:24:34.538Z,8.20
2018-08-18T09:27:04.561Z,9.60
2018-08-18T09:29:37.368Z,7.90
2018-08-18T09:32:05.178Z,9.03
2018-08-18T09:34:39.436Z,8.60
2018-08-18T09:37:07.164Z,7.90
2018-08-18T09:39:34.921Z,7.77
2018-08-18T09:42:06.005Z,8.00
2018-08-18T09:44:35.208Z,7.60
2018-08-18T09:47:03.449Z,7.27
2018-08-18T09:49:31.672Z,7.30
2018-08-18T09:52:00.683Z,8.27
2018-08-18T09:54:28.625Z,6.73
2018-08-18T09:56:57.953Z,6.63
2018-08-18T09:59:26.836Z,6.93
2018-08-18T10:01:54.844Z,7.70
2018-08-18T10:04:23.008Z,6.97
2018-08-18T10:06:51.416Z,7.10
2018-08-18T10:09:19.646Z,6.33
2018-08-18T10:11:47.405Z,5.17
2018-08-18T10:14:15.138Z,6.27
2018-08-18T10:16:43.310Z,6.37
2018-08-18T10:19:11.244Z,7.10
2018-08-18T10:21:38.945Z,6.50
2018-08-18T10:24:06.979Z,5.83
2018-08-18T10:26:34.623Z,5.60
2018-08-18T10:29:13.617Z,6.03
2018-08-18T10:31:46.745Z,6.80
2018-08-18T10:34:15.046Z,4.40
2018-08-18T10:36:45.957Z,4.70
2018-08-18T10:39:13.728Z,5.80
2018-08-18T10:41:53.171Z,6.17
2018-08-18T10:44:21.660Z,6.13
2018-08-18T10:47:00.067Z,5.67
2018-08-18T10:49:39.379Z,7.03
2018-08-18T10:52:18.744Z,6.40
2018-08-18T10:54:46.864Z,5.47
2018-08-18T10:57:25.907Z,8.47
2018-08-18T10:59:53.614Z,6.93
2018-08-18T11:02:31.082Z,7.07
2018-08-18T11:04:59.014Z,6.93
2018-08-18T11:07:27.945Z,6.10
2018-08-18T11:09:55.837Z,5.03
2018-08-18T11:12:23.995Z,5.73
2018-08-18T11:14:56.375Z,6.00
2018-08-18T11:17:25.159Z,6.63
2018-08-18T11:19:54.568Z,6.70
2018-08-18T11:23:31.161Z,5.93
2018-08-18T11:26:00.011Z,5.90
2018-08-18T11:28:27.704Z,6.70
2018-08-18T11:30:55.620Z,7.40
2018-08-18T11:33:37.855Z,6.57
2018-08-18T11:36:06.958Z,6.90
2018-08-18T11:38:35.440Z,6.17
2018-08-18T11:41:03.378Z,6.20
2018-08-18T11:43:38.068Z,6.53
2018-08-18T11:46:06.428Z,6.60
2018-08-18T11:48:35.850Z,6.33
2018-08-18T11:51:03.620Z,8.30
2018-08-18T11:53:31.252Z,6.53
2018-08-18T11:55:59.006Z,6.43
2018-08-18T11:58:27.080Z,7.40
2018-08-18T12:00:58.140Z,7.27
2018-08-18T12:03:29.077Z,6.43
2018-08-18T12:05:59.264Z,8.27
2018-08-18T12:08:32.886Z,6.83
2018-08-18T12:11:03.205Z,7.43
2018-08-18T12:13:36.822Z,6.33
2018-08-18T12:16:13.391Z,6.93
2018-08-18T12:18:42.760Z,6.73
2018-08-18T12:21:10.990Z,7.27
2018-08-18T12:23:41.097Z,7.97
2018-08-18T12:26:11.640Z,7.60
2018-08-18T12:28:43.494Z,7.23
2018-08-18T12:31:14.233Z,7.93
2018-08-18T12:33:42.078Z,6.60
2018-08-18T12:36:10.699Z,6.33
2018-08-18T12:38:42.106Z,6.43
2018-08-18T12:41:10.353Z,7.50
2018-08-18T12:43:40.929Z,7.00
2018-08-18T12:46:11.009Z,6.87
2018-08-18T12:48:42.801Z,6.50
2018-08-18T12:51:12.695Z,7.83
2018-08-18T12:53:51.069Z,7.10
2018-08-18T12:56:20.956Z,7.30
2018-08-18T12:58:48.797Z,8.10
2018-08-18T13:01:33.544Z,7.67
2018-08-18T13:04:01.584Z,7.97
2018-08-18T13:06:33.831Z,8.80
2018-08-18T13:09:02.280Z,7.40
2018-08-18T13:11:30.095Z,7.70
2018-08-18T13:14:02.414Z,6.57
2018-08-18T13:16:30.281Z,8.13
2018-08-18T13:18:58.055Z,7.30
2018-08-18T13:21:25.795Z,6.70
2018-08-18T13:23:53.641Z,5.97
2018-08-18T13:26:21.284Z,6.40
2018-08-18T13:28:52.335Z,6.90
2018-08-18T13:31:23.122Z,6.10
2018-08-18T13:33:51.168Z,5.63
2018-08-18T13:36:19.777Z,5.80
2018-08-18T13:38:47.667Z,5.70
2018-08-18T13:41:15.890Z,5.87
2018-08-18T13:43:45.270Z,6.00
2018-08-18T13:46:14.755Z,6.07
2018-08-18T13:48:49.195Z,6.27
2018-08-18T13:51:17.309Z,5.80
2018-08-18T13:53:50.793Z,6.43
2018-08-18T13:56:19.329Z,5.57
2018-08-18T13:58:49.446Z,6.60
2018-08-18T14:01:33.868Z,6.60
2018-08-18T14:04:01.812Z,6.00
2018-08-18T14:06:31.732Z,5.70
2018-08-18T14:09:00.991Z,6.53
2018-08-18T14:11:29.547Z,5.30
2018-08-18T14:13:59.681Z,4.70
2018-08-18T14:16:28.817Z,5.63
2018-08-18T14:19:01.914Z,5.30
2018-08-18T14:21:30.611Z,5.33
2018-08-18T14:23:58.773Z,5.97
2018-08-18T14:26:26.966Z,5.33
2018-08-18T14:28:54.912Z,5.50
2018-08-18T14:31:23.098Z,4.97
2018-08-18T14:33:51.046Z,5.10
2018-08-18T14:36:19.381Z,5.40
2018-08-18T14:38:47.405Z,4.97
2018-08-18T14:41:20.843Z,5.43
2018-08-18T14:43:48.528Z,5.03
2018-08-18T14:46:16.499Z,5.23
2018-08-18T14:48:44.156Z,4.07
2018-08-18T14:51:12.875Z,4.50
2018-08-18T14:53:41.368Z,5.77
2018-08-18T14:56:09.943Z,4.73
2018-08-18T14:58:40.007Z,4.50
2018-08-18T15:01:13.104Z,4.50
2018-08-18T15:03:42.030Z,4.57
2018-08-18T15:06:17.358Z,4.60
2018-08-18T15:08:46.194Z,4.97
2018-08-18T15:11:15.163Z,4.90
2018-08-18T15:13:47.271Z,4.13
2018-08-18T15:16:15.887Z,4.83
2018-08-18T15:18:43.782Z,4.30
2018-08-18T15:21:11.577Z,4.37
2018-08-18T15:23:39.478Z,4.17
2018-08-18T15:26:07.399Z,4.20
2018-08-18T15:28:35.031Z,4.93
2018-08-18T15:31:03.531Z,4.10
2018-08-18T15:33:31.626Z,4.13
2018-08-18T15:35:59.272Z,4.20
2018-08-18T15:38:45.712Z,4.30
2018-08-18T15:41:13.410Z,4.00
2018-08-18T15:43:46.310Z,4.17
2018-08-18T15:46:14.385Z,4.13
2018-08-18T15:48:42.204Z,4.20
2018-08-18T15:51:10.068Z,4.60
2018-08-18T15:53:56.329Z,5.00
2018-08-18T15:56:24.884Z,4.90
2018-08-18T15:58:53.401Z,4.40
2018-08-18T16:01:23.396Z,4.20
2018-08-18T16:03:51.945Z,4.03
2018-08-18T16:06:19.731Z,4.50
2018-08-18T16:08:47.391Z,4.40
2018-08-18T16:11:15.661Z,4.10
2018-08-18T16:13:43.576Z,4.90
2018-08-18T16:16:12.078Z,3.50
2018-08-18T16:18:39.988Z,4.30
2018-08-18T16:21:14.065Z,3.90
2018-08-18T16:23:42.967Z,4.33
2018-08-18T16:26:12.286Z,4.93
2018-08-18T16:28:44.869Z,3.83
2018-08-18T16:31:13.380Z,3.57
2018-08-18T16:33:41.574Z,4.50
2018-08-18T16:36:09.591Z,3.40
2018-08-18T16:38:37.374Z,3.43
2018-08-18T16:41:05.054Z,3.50
2018-08-18T16:43:34.501Z,3.63
2018-08-18T16:46:18.950Z,3.80
2018-08-18T16:48:47.085Z,3.50
2018-08-18T16:51:14.705Z,4.40
2018-08-18T16:53:42.998Z,3.60
2018-08-18T16:56:24.148Z,3.10
2018-08-18T16:58:55.149Z,3.90
2018-08-18T17:01:23.220Z,4.73
2018-08-18T17:03:52.089Z,4.80
2018-08-18T17:06:19.702Z,4.47
2018-08-18T17:08:47.451Z,4.77
2018-08-18T17:11:15.600Z,5.23
2018-08-18T17:13:43.446Z,4.50
2018-08-18T17:16:11.158Z,4.13
2018-08-18T17:18:38.926Z,4.30
2018-08-18T17:21:07.272Z,4.80
2018-08-18T17:23:36.972Z,3.67
2018-08-18T17:26:04.759Z,3.97
2018-08-18T17:28:33.128Z,4.13
2018-08-18T17:31:01.018Z,3.83
2018-08-18T17:33:28.949Z,4.03
2018-08-18T17:35:56.629Z,4.37
2018-08-18T17:38:24.239Z,4.33
2018-08-18T17:40:51.922Z,3.70
2018-08-18T17:43:20.353Z,3.30
2018-08-18T17:45:53.693Z,3.03
2018-08-18T17:48:22.907Z,3.73
2018-08-18T17:50:51.549Z,3.20
2018-08-18T17:53:19.399Z,3.73
2018-08-18T17:55:52.735Z,4.17
2018-08-18T17:58:20.403Z,3.40
2018-08-18T18:00:48.052Z,4.63
2018-08-18T18:03:15.964Z,6.20
2018-08-18T18:05:43.861Z,4.33
2018-08-18T18:08:11.551Z,5.10
2018-08-18T18:10:39.472Z,5.23
2018-08-18T18:13:14.410Z,4.30
2018-08-18T18:15:42.608Z,4.20
2018-08-18T18:18:11.982Z,4.10
2018-08-18T18:20:41.252Z,3.77
2018-08-18T18:23:10.798Z,5.10
2018-08-18T18:25:38.574Z,5.00
2018-08-18T18:28:06.246Z,4.87
2018-08-18T18:30:33.872Z,17.37
2018-08-18T18:33:01.548Z,4.03
2018-08-18T18:35:29.141Z,4.47
2018-08-18T18:38:00.918Z,68.77
2018-08-18T18:40:33.348Z,35.67
2018-08-18T18:43:00.881Z,41.90
2018-08-18T18:45:28.577Z,19.53
2018-08-18T18:47:56.240Z,8.87
2018-08-18T18:50:24.009Z,6.10
2018-08-18T18:52:51.891Z,4.80
2018-08-18T18:55:19.664Z,3.40
2018-08-18T18:58:04.127Z,3.90
2018-08-18T19:00:33.526Z,7.13
2018-08-18T19:03:01.493Z,5.10
2018-08-18T19:05:30.275Z,4.10
2018-08-18T19:08:10.500Z,5.87
2018-08-18T19:10:38.108Z,3.40
2018-08-18T19:13:06.179Z,4.80
2018-08-18T19:15:33.893Z,4.00
2018-08-18T19:18:01.557Z,5.47
2018-08-18T19:20:29.929Z,3.57
2018-08-18T19:23:11.063Z,3.60
2018-08-18T19:25:40.126Z,4.03
2018-08-18T19:28:15.848Z,4.53
2018-08-18T19:30:43.513Z,3.70
2018-08-18T19:33:12.304Z,4.57
2018-08-18T19:35:41.009Z,4.20
2018-08-18T19:38:08.703Z,3.80
2018-08-18T19:40:37.495Z,4.23
2018-08-18T19:43:07.968Z,4.13
2018-08-18T19:45:35.525Z,4.40
2018-08-18T19:48:03.404Z,5.80
2018-08-18T19:50:30.914Z,5.50
2018-08-18T19:53:04.147Z,5.27
2018-08-18T19:55:31.811Z,5.70
2018-08-18T19:57:59.347Z,4.10
2018-08-18T20:00:26.953Z,4.10
2018-08-18T20:03:05.929Z,3.83
2018-08-18T20:05:33.901Z,4.40
2018-08-18T20:08:01.485Z,4.33
2018-08-18T20:10:29.765Z,3.30
2018-08-18T20:12:57.401Z,4.00
2018-08-18T20:15:24.978Z,3.70
2018-08-18T20:17:52.509Z,3.10
2018-08-18T20:20:21.975Z,3.63
2018-08-18T20:22:49.696Z,4.00
2018-08-18T20:25:17.296Z,4.37
2018-08-18T20:27:45.091Z,3.77
2018-08-18T20:30:13.782Z,3.60
2018-08-18T20:32:41.384Z,3.33
2018-08-18T20:35:09.244Z,3.90
2018-08-18T20:37:36.981Z,3.60
2018-08-18T20:40:05.756Z,4.50
2018-08-18T20:42:38.969Z,3.90
2018-08-18T20:45:07.193Z,3.37
2018-08-18T20:47:41.563Z,4.60
2018-08-18T20:50:10.041Z,4.40
2018-08-18T20:52:37.977Z,4.23
2018-08-18T20:55:06.258Z,5.00
2018-08-18T20:57:34.190Z,4.40
2018-08-18T21:00:02.015Z,4.33
2018-08-18T21:02:29.729Z,4.30
2018-08-18T21:04:58.881Z,4.53
2018-08-18T21:07:27.864Z,4.00
2018-08-18T21:09:55.962Z,3.97
2018-08-18T21:12:30.621Z,4.40
2018-08-18T21:15:00.845Z,3.73
2018-08-18T21:17:29.301Z,3.93
2018-08-18T21:19:57.089Z,4.40
2018-08-18T21:22:28.814Z,3.80
2018-08-18T21:24:56.618Z,4.03
2018-08-18T21:27:24.452Z,4.30
2018-08-18T21:29:53.148Z,4.23
2018-08-18T21:32:22.502Z,3.77
2018-08-18T21:34:51.030Z,3.70
2018-08-18T21:37:19.408Z,3.43
2018-08-18T21:39:53.205Z,4.20
2018-08-18T21:42:21.102Z,4.00
2018-08-18T21:44:52.144Z,4.20
2018-08-18T21:47:19.784Z,3.70
2018-08-18T21:49:47.636Z,4.73
2018-08-18T21:52:16.544Z,4.13
2018-08-18T21:54:44.645Z,4.63
2018-08-18T21:57:12.381Z,4.33
2018-08-18T21:59:52.782Z,4.00
2018-08-18T22:02:33.223Z,3.60
2018-08-18T22:05:01.441Z,3.73
2018-08-18T22:07:36.970Z,4.23
2018-08-18T22:10:06.409Z,4.20
2018-08-18T22:12:34.084Z,4.20
2018-08-18T22:15:06.466Z,3.90
2018-08-18T22:17:34.373Z,4.10
2018-08-18T22:20:02.917Z,4.13
2018-08-18T22:22:30.761Z,4.53
2018-08-18T22:24:58.528Z,5.40
2018-08-18T22:27:26.256Z,5.80
2018-08-18T22:29:54.618Z,5.00
2018-08-18T22:32:22.735Z,5.10
2018-08-18T22:34:51.198Z,5.07
2018-08-18T22:37:19.187Z,5.90
2018-08-18T22:39:46.921Z,5.33
2018-08-18T22:42:14.623Z,4.20
2018-08-18T22:44:42.609Z,5.00
2018-08-18T22:47:10.342Z,4.73
2018-08-18T22:49:38.208Z,4.40
2018-08-18T22:52:06.072Z,4.70
2018-08-18T22:54:33.912Z,4.13
2018-08-18T22:57:03.814Z,5.00
2018-08-18T22:59:31.954Z,4.10
2018-08-18T23:02:00.960Z,4.37
2018-08-18T23:04:35.056Z,4.10
2018-08-18T23:07:04.334Z,5.00
2018-08-18T23:09:32.927Z,4.07
2018-08-18T23:12:02.545Z,4.10
2018-08-18T23:14:36.644Z,4.93
2018-08-18T23:17:04.916Z,4.27
2018-08-18T23:19:33.404Z,5.00
2018-08-18T23:22:01.573Z,4.27
2018-08-18T23:24:32.119Z,3.63
2018-08-18T23:27:00.144Z,4.30
2018-08-18T23:29:28.341Z,3.90
2018-08-18T23:31:56.308Z,3.27
2018-08-18T23:34:24.216Z,4.73
2018-08-18T23:36:52.352Z,3.80
2018-08-18T23:39:19.958Z,3.80
2018-08-18T23:41:49.211Z,3.97
2018-08-18T23:44:17.070Z,4.07
2018-08-18T23:46:44.617Z,3.47
2018-08-18T23:49:12.320Z,3.30
2018-08-18T23:51:42.032Z,4.10
2018-08-18T23:54:15.207Z,3.40
2018-08-18T23:56:42.860Z,5.43
2018-08-18T23:59:10.584Z,3.73
